• Join FlightAware (Why Join?)
  • Login
  • US Flag 
08:57PM EDT


 

Airport Tracker/Info


-or-


 

Live Flight TrackerFlight Track Log ✈ EJA695 ✈ 07-Sep-2013 ✈ KTYS - KLUK

Flight Track Log - Related Links

Times and Time Zones

All times are in EDT time to prevent confusion due to time zone crossing. See the EJA695 flight status page for this flight to view local times or setup timezone preferences in your user account.

Time Position Orientation Groundspeed Altitude Reporting Facility
EDT Latitude Longitude Course Direction KTS MPH feet Rate Location/Type
12:55PM 35.7914 -84.0747 13° North 219 252 5,900  Level Atlanta Center
12:56PM 35.8558 -84.0567 13° North 150 173 8,500 2,520 Climbing Atlanta Center
12:57PM 35.9186 -84.0028 35° Northeast 186 214 11,000 2,460 Climbing Atlanta Center
12:58PM 35.9872 -83.9542 30° Northeast 238 274 13,500 2,340 Climbing Atlanta Center
12:59PM 36.0542 -83.9078 29° Northeast 258 297 15,700 1,860 Climbing Atlanta Center
01:00PM 36.1272 -83.8592 28° Northeast 298 343 17,100 1,260 Climbing Indianapolis Center
01:01PM 36.2161 -83.8411 North 324 373 18,200 1,140 Climbing Indianapolis Center
01:02PM 36.3061 -83.8244 North 327 376 19,500 1,260 Climbing Indianapolis Center
01:03PM 36.3969 -83.8083 North 329 379 20,900 1,260 Climbing Indianapolis Center
01:04PM 36.4889 -83.7928 North 333 383 22,200 1,380 Climbing Indianapolis Center
01:05PM 36.5978 -83.7744 North 338 389 23,800 1,080 Climbing Indianapolis Center
01:06PM 36.6931 -83.7603 North 343 395 24,500 540 Climbing Indianapolis Center
01:07PM 36.7889 -83.7808 350° North 351 404 25,000 240 Climbing Indianapolis Center
01:08PM 36.8814 -83.8000 351° North 340 391 25,000  Level Indianapolis Center
01:09PM 36.9761 -83.8214 350° North 342 394 25,000  Level Indianapolis Center
01:10PM 37.0753 -83.8433 350° North 356 410 25,000  Level Indianapolis Center
01:11PM 37.1711 -83.8653 350° North 352 405 25,000 -120 Level Indianapolis Center
01:12PM 37.2633 -83.8850 350° North 336 387 24,800 -540 Descending Indianapolis Center
01:13PM 37.3581 -83.9069 350° North 345 397 24,000 -420 Descending Indianapolis Center
01:14PM 37.4678 -83.9317 350° North 343 395 24,000 -480 Level Indianapolis Center
01:15PM 37.5614 -83.9528 350° North 340 391 23,100 -1,020 Descending Indianapolis Center
01:16PM 37.6575 -83.9758 349° North 350 403 22,000 -1,140 Descending Indianapolis Center
01:17PM 37.7550 -83.9975 350° North 353 406 20,800 -1,260 Descending Indianapolis Center
01:18PM 37.8517 -84.0206 349° North 352 405 19,500 -1,260 Descending Indianapolis Center
01:19PM 37.9481 -84.0425 350° North 351 404 18,300 -1,260 Descending Indianapolis Center
01:20PM 38.0444 -84.0656 349° North 350 403 17,000 -1,320 Descending Indianapolis Center
01:21PM 38.1572 -84.0883 351° North 351 404 15,600 -1,320 Descending Indianapolis Center
01:23PM 38.2517 -84.1103 350° North 345 397 14,300 -1,260 Descending Indianapolis Center
01:24PM 38.3447 -84.1319 350° North 340 391 13,100 -1,080 Descending Indianapolis Center
01:25PM 38.4361 -84.1542 349° North 334 384 12,100 -540 Descending Indianapolis Center
01:26PM 38.5194 -84.1831 345° North 319 367 12,100 -540 Level Indianapolis Center
01:27PM 38.6031 -84.2072 347° North 307 353 11,000 -1,500 Descending Indianapolis Center
01:28PM 38.6953 -84.2286 350° North 329 379 9,100 -1,800 Descending Indianapolis Center
01:29PM 38.7794 -84.2511 348° North 317 365 7,400 -1,380 Descending Indianapolis Center
01:30PM 38.8492 -84.2656 351° North 265 305 6,300 -1,080 Descending Indianapolis Center
01:31PM 38.9242 -84.2808 351° North 270 311 5,200 -1,440 Descending Indianapolis Center
01:32PM 39.0103 -84.2997 350° North 267 307 3,400 -960 Descending Indianapolis Center
01:34PM 39.1167 -84.3500 340° North 182 209 2,300 -780 Descending Cincinnati TRACON
01:35PM 39.1167 -84.4000 270° West 158 182 1,100 -1,200 Descending Cincinnati TRACON
01:37PM 39.1033 -84.4186 227° Southwest  Level Estimated